createdAt,value
2018-05-12T00:09:24.000Z,22.52
2018-05-12T00:19:24.000Z,22.5
2018-05-12T00:29:24.000Z,22.46
2018-05-12T00:39:24.000Z,22.43
2018-05-12T00:49:24.000Z,22.41
2018-05-12T00:59:24.000Z,22.37
2018-05-12T01:09:24.000Z,22.34
2018-05-12T01:19:24.000Z,22.34
2018-05-12T01:29:24.000Z,22.32
2018-05-12T01:39:24.000Z,22.28
2018-05-12T01:49:24.000Z,22.26
2018-05-12T01:59:24.000Z,22.24
2018-05-12T02:09:24.000Z,22.22
2018-05-12T02:19:24.000Z,22.21
2018-05-12T02:29:24.000Z,22.2
2018-05-12T02:39:24.000Z,22.17
2018-05-12T02:49:24.000Z,22.16
2018-05-12T02:59:24.000Z,22.13
2018-05-12T03:09:24.000Z,22.1
2018-05-12T03:19:24.000Z,22.09
2018-05-12T03:29:24.000Z,22.05
2018-05-12T03:39:24.000Z,22.03
2018-05-12T03:49:26.000Z,22
2018-05-12T03:59:24.000Z,21.99
2018-05-12T04:09:24.000Z,21.98
2018-05-12T04:19:24.000Z,21.95
2018-05-12T04:29:24.000Z,21.94
2018-05-12T04:39:24.000Z,21.95
2018-05-12T04:49:24.000Z,21.98
2018-05-12T04:59:24.000Z,21.99
2018-05-12T05:09:24.000Z,22.02
2018-05-12T05:19:24.000Z,22.05
2018-05-12T05:29:24.000Z,22.12
2018-05-12T05:39:24.000Z,22.18
2018-05-12T05:49:24.000Z,22.24
2018-05-12T05:59:24.000Z,22.32
2018-05-12T06:09:24.000Z,22.35
2018-05-12T06:19:24.000Z,22.39
2018-05-12T06:29:24.000Z,22.47
2018-05-12T06:39:24.000Z,22.52
2018-05-12T06:49:24.000Z,22.58
2018-05-12T06:59:24.000Z,22.64
2018-05-12T07:09:24.000Z,22.71
2018-05-12T07:19:24.000Z,22.84
2018-05-12T07:29:24.000Z,22.89
2018-05-12T07:39:24.000Z,22.98
2018-05-12T07:49:24.000Z,23.09
2018-05-12T07:59:25.000Z,23.35
2018-05-12T08:09:25.000Z,23.43
2018-05-12T08:19:25.000Z,23.53
2018-05-12T08:29:25.000Z,23.62
2018-05-12T08:39:25.000Z,23.72
2018-05-12T08:49:25.000Z,23.83
2018-05-12T08:59:25.000Z,23.97
2018-05-12T09:09:25.000Z,24.08
2018-05-12T09:19:25.000Z,24.31
2018-05-12T09:29:25.000Z,24.4
2018-05-12T09:39:25.000Z,24.61
2018-05-12T09:49:25.000Z,24.85
2018-05-12T09:59:25.000Z,24.88
2018-05-12T10:09:25.000Z,24.25
2018-05-12T10:19:25.000Z,24.4
2018-05-12T10:29:25.000Z,23.86
2018-05-12T10:39:25.000Z,24.38
2018-05-12T10:49:25.000Z,24.72
2018-05-12T10:59:25.000Z,24.79
2018-05-12T11:09:25.000Z,24.9
2018-05-12T11:19:25.000Z,24.8
2018-05-12T11:29:25.000Z,25.01
2018-05-12T11:39:25.000Z,25.06
2018-05-12T11:49:25.000Z,25.11
2018-05-12T11:59:25.000Z,25
2018-05-12T12:09:25.000Z,24.8
2018-05-12T12:19:25.000Z,24.66
2018-05-12T12:29:25.000Z,24.5
2018-05-12T12:39:25.000Z,24.5
2018-05-12T12:49:25.000Z,24.39
2018-05-12T12:59:25.000Z,24.56
2018-05-12T13:09:25.000Z,24.93
2018-05-12T13:19:25.000Z,24.48
2018-05-12T13:29:25.000Z,24.74
2018-05-12T13:39:25.000Z,24.38
2018-05-12T13:49:25.000Z,24.34
2018-05-12T13:59:25.000Z,24.51
2018-05-12T14:09:29.000Z,24.64
2018-05-12T14:19:25.000Z,24.67
2018-05-12T14:29:25.000Z,24.4
2018-05-12T14:39:25.000Z,24.22
2018-05-12T14:49:25.000Z,24.33
2018-05-12T14:59:25.000Z,24.44
2018-05-12T15:09:26.000Z,24.35
2018-05-12T15:19:25.000Z,24.34
2018-05-12T15:29:25.000Z,24.49
2018-05-12T15:39:25.000Z,24.43
2018-05-12T15:49:25.000Z,24.47
2018-05-12T16:09:27.000Z,24.59
2018-05-12T16:19:26.000Z,24.49
2018-05-12T16:29:26.000Z,24.58
2018-05-12T16:39:26.000Z,24.58
2018-05-12T16:49:26.000Z,24.62
2018-05-12T16:59:26.000Z,24.4
2018-05-12T17:09:26.000Z,24.5
2018-05-12T17:19:26.000Z,24.46
2018-05-12T17:29:27.000Z,24.61
2018-05-12T17:39:26.000Z,24.77
2018-05-12T17:49:26.000Z,24.76
2018-05-12T17:59:26.000Z,24.74
2018-05-12T18:09:26.000Z,24.69
2018-05-12T18:19:26.000Z,24.71
2018-05-12T18:29:26.000Z,24.73
2018-05-12T18:39:26.000Z,24.65
2018-05-12T18:49:26.000Z,24.64
2018-05-12T18:59:26.000Z,24.52
2018-05-12T19:09:26.000Z,24.48
2018-05-12T19:19:26.000Z,24.45
2018-05-12T19:29:26.000Z,24.4
2018-05-12T19:39:26.000Z,24.37
2018-05-12T19:49:26.000Z,24.33
2018-05-12T19:59:26.000Z,24.32
2018-05-12T20:09:26.000Z,24.3
2018-05-12T20:19:26.000Z,24.27
2018-05-12T20:29:26.000Z,24.25
2018-05-12T20:39:27.000Z,24.24
2018-05-12T20:49:26.000Z,24.22
2018-05-12T20:59:26.000Z,24.17
2018-05-12T21:09:27.000Z,24.14
2018-05-12T21:19:26.000Z,24.11
2018-05-12T21:29:26.000Z,24.1
2018-05-12T21:39:26.000Z,24.06
2018-05-12T21:49:26.000Z,24.05
2018-05-12T21:59:26.000Z,24
2018-05-12T22:09:26.000Z,23.96
2018-05-12T22:19:26.000Z,23.92
2018-05-12T22:29:26.000Z,23.89
2018-05-12T22:39:27.000Z,23.85
2018-05-12T22:49:26.000Z,23.82
2018-05-12T22:59:26.000Z,23.78
2018-05-12T23:09:26.000Z,23.74
2018-05-12T23:19:26.000Z,23.7
2018-05-12T23:29:26.000Z,23.68
2018-05-12T23:39:26.000Z,23.64
2018-05-12T23:49:26.000Z,23.6
2018-05-12T23:59:26.000Z,23.55
